createdAt,value
2022-08-17T00:00:43.100Z,99956.63
2022-08-17T00:03:13.579Z,99958.88
2022-08-17T00:05:52.494Z,99951.97
2022-08-17T00:08:23.824Z,99953.34
2022-08-17T00:10:53.338Z,99945.31
2022-08-17T00:13:27.823Z,99939.16
2022-08-17T00:15:59.481Z,99932.22
2022-08-17T00:19:06.829Z,99940.09
2022-08-17T00:21:23.755Z,99938.50
2022-08-17T00:23:54.413Z,99930.88
2022-08-17T00:26:44.154Z,99928.28
2022-08-17T00:29:19.521Z,99929.97
2022-08-17T00:31:48.572Z,99936.72
2022-08-17T00:34:16.907Z,99936.84
2022-08-17T00:36:44.615Z,99921.25
2022-08-17T00:39:12.532Z,99928.59
2022-08-17T00:41:42.190Z,99919.94
2022-08-17T00:44:12.317Z,99922.41
2022-08-17T00:46:42.265Z,99922.66
2022-08-17T00:49:11.728Z,99921.62
2022-08-17T00:51:52.518Z,99914.47
2022-08-17T00:54:27.279Z,99918.06
2022-08-17T00:56:58.854Z,99920.34
2022-08-17T00:59:32.068Z,99918.66
2022-08-17T01:02:00.173Z,99919.88
2022-08-17T01:04:31.323Z,99924.87
2022-08-17T01:07:01.622Z,99924.06
2022-08-17T01:09:31.469Z,99926.00
2022-08-17T01:11:59.382Z,99923.00
2022-08-17T01:14:27.079Z,99933.63
2022-08-17T01:16:56.456Z,99930.75
2022-08-17T01:19:30.782Z,99936.84
2022-08-17T01:22:10.811Z,99934.41
2022-08-17T01:24:44.039Z,99934.94
2022-08-17T01:27:14.494Z,99936.91
2022-08-17T01:29:46.203Z,99929.38
2022-08-17T01:32:14.794Z,99940.28
2022-08-17T01:34:43.615Z,99933.13
2022-08-17T01:37:14.226Z,99932.72
2022-08-17T01:39:54.240Z,99923.19
2022-08-17T01:42:54.027Z,99927.47
2022-08-17T01:45:26.750Z,99933.13
2022-08-17T01:47:55.508Z,99925.75
2022-08-17T01:50:30.238Z,99926.00
2022-08-17T01:53:35.001Z,99939.50
2022-08-17T01:56:09.260Z,99934.75
2022-08-17T01:58:38.918Z,99941.41
2022-08-17T02:01:08.965Z,99948.91
2022-08-17T02:03:38.122Z,99944.06
2022-08-17T02:06:11.991Z,99945.69
2022-08-17T02:09:01.981Z,99943.22
2022-08-17T02:11:33.649Z,99937.91
2022-08-17T02:14:04.128Z,99936.25
2022-08-17T02:16:37.565Z,99945.53
2022-08-17T02:19:09.394Z,99946.59
2022-08-17T02:21:37.652Z,99951.25
2022-08-17T02:24:10.966Z,99953.56
2022-08-17T02:26:39.266Z,99951.09
2022-08-17T02:29:07.379Z,99957.31
2022-08-17T02:31:35.687Z,99947.34
2022-08-17T02:34:05.365Z,99946.38
2022-08-17T02:36:34.569Z,99948.03
2022-08-17T02:39:04.717Z,99950.41
2022-08-17T02:41:33.228Z,99947.47
2022-08-17T02:44:01.463Z,99947.97
2022-08-17T02:46:30.536Z,99941.94
2022-08-17T02:48:59.235Z,99951.00
2022-08-17T02:51:27.330Z,99949.78
2022-08-17T02:54:35.778Z,99941.63
2022-08-17T02:56:44.026Z,99956.06
2022-08-17T02:59:11.693Z,99948.31
2022-08-17T03:01:39.422Z,99949.13
2022-08-17T03:04:07.822Z,99954.63
2022-08-17T03:06:35.775Z,99949.78
2022-08-17T03:09:04.611Z,99957.56
2022-08-17T03:11:32.793Z,99958.78
2022-08-17T03:14:00.411Z,99964.81
2022-08-17T03:16:28.554Z,99975.69
2022-08-17T03:18:56.801Z,99981.41
2022-08-17T03:21:24.573Z,99981.19
2022-08-17T03:23:54.320Z,99978.69
2022-08-17T03:26:22.709Z,99974.88
2022-08-17T03:28:50.696Z,99974.19
2022-08-17T03:31:18.500Z,99984.38
2022-08-17T03:33:46.450Z,99985.47
2022-08-17T03:36:14.328Z,99984.63
2022-08-17T03:38:42.281Z,99983.34
2022-08-17T03:41:11.313Z,99982.16
2022-08-17T03:43:39.034Z,99980.41
2022-08-17T03:46:28.615Z,99997.78
2022-08-17T03:49:24.433Z,99995.44
2022-08-17T03:52:11.832Z,99996.31
2022-08-17T03:54:59.555Z,99997.88
2022-08-17T03:57:29.215Z,100011.19
2022-08-17T03:59:58.698Z,99999.44
2022-08-17T04:02:31.959Z,100001.09
2022-08-17T04:05:00.670Z,100005.03
2022-08-17T04:07:31.423Z,100016.16
2022-08-17T04:10:01.226Z,100005.91
2022-08-17T04:12:42.656Z,99994.37
2022-08-17T04:15:12.700Z,99999.34
2022-08-17T04:17:41.106Z,100001.50
2022-08-17T04:20:19.248Z,100003.22
2022-08-17T04:23:19.878Z,100014.47
2022-08-17T04:25:51.552Z,100012.12
2022-08-17T04:28:20.282Z,100010.66
2022-08-17T04:30:48.237Z,100013.41
2022-08-17T04:33:19.603Z,100010.00
2022-08-17T04:35:52.071Z,100012.19
2022-08-17T04:38:24.495Z,100008.06
2022-08-17T04:41:12.569Z,100008.53
2022-08-17T04:43:43.025Z,100005.97
2022-08-17T04:46:14.637Z,100008.97
2022-08-17T04:48:45.961Z,100004.22
2022-08-17T04:51:17.026Z,100007.72
2022-08-17T04:53:54.120Z,100013.06
2022-08-17T04:56:25.950Z,99996.91
2022-08-17T04:58:56.240Z,100013.53
2022-08-17T05:01:25.015Z,100019.44
2022-08-17T05:03:56.276Z,100014.56
2022-08-17T05:06:24.519Z,100023.47
2022-08-17T05:08:52.569Z,100018.44
2022-08-17T05:11:20.378Z,100022.38
2022-08-17T05:13:52.072Z,100030.28
2022-08-17T05:16:22.097Z,100027.88
2022-08-17T05:18:51.080Z,100029.06
2022-08-17T05:21:21.733Z,100023.41
2022-08-17T05:23:56.197Z,100028.16
2022-08-17T05:26:27.363Z,100019.34
2022-08-17T05:29:00.321Z,100031.13
2022-08-17T05:31:30.771Z,100031.00
2022-08-17T05:33:59.307Z,100032.16
2022-08-17T05:36:38.097Z,100039.38
2022-08-17T05:39:16.934Z,100039.34
2022-08-17T05:41:48.348Z,100051.34
2022-08-17T05:44:17.153Z,100049.75
2022-08-17T05:46:49.220Z,100043.87
2022-08-17T05:49:24.431Z,100046.03
2022-08-17T05:52:07.326Z,100043.41
2022-08-17T05:54:53.692Z,100042.84
2022-08-17T05:57:47.417Z,100050.25
2022-08-17T06:00:37.370Z,100044.78
2022-08-17T06:03:22.483Z,100040.59
2022-08-17T06:05:51.500Z,100033.31
2022-08-17T06:08:53.218Z,100031.78
2022-08-17T06:11:39.039Z,100042.12
2022-08-17T06:14:13.066Z,100041.38
2022-08-17T06:16:46.502Z,100035.56
2022-08-17T06:19:54.705Z,100043.91
2022-08-17T06:22:28.564Z,100042.38
2022-08-17T06:25:05.078Z,100049.06
2022-08-17T06:27:43.214Z,100056.81
2022-08-17T06:30:18.915Z,100051.28
2022-08-17T06:32:49.512Z,100054.53
2022-08-17T06:35:39.914Z,100053.13
2022-08-17T06:38:37.234Z,100060.47
2022-08-17T06:41:15.404Z,100059.34
2022-08-17T06:43:50.762Z,100058.59
2022-08-17T06:46:35.129Z,100064.97
2022-08-17T06:49:14.099Z,100066.22
2022-08-17T06:51:58.445Z,100070.34
2022-08-17T06:55:00.405Z,100069.94
2022-08-17T06:57:31.829Z,100066.00
2022-08-17T07:00:13.697Z,100073.75
2022-08-17T07:03:09.827Z,100063.34
2022-08-17T07:05:46.201Z,100072.16
2022-08-17T07:09:06.478Z,100071.41
2022-08-17T07:11:49.259Z,100075.03
2022-08-17T07:14:20.384Z,100064.69
2022-08-17T07:16:53.663Z,100066.22
2022-08-17T07:19:31.737Z,100066.25
2022-08-17T07:22:02.264Z,100068.53
2022-08-17T07:24:44.604Z,100063.78
2022-08-17T07:27:27.625Z,100063.25
2022-08-17T07:30:10.995Z,100062.41
2022-08-17T07:32:45.245Z,100069.53
2022-08-17T07:35:19.906Z,100064.56
2022-08-17T07:37:54.203Z,100065.13
2022-08-17T07:40:32.125Z,100063.41
2022-08-17T07:43:21.926Z,100057.81
2022-08-17T07:46:22.530Z,100059.25
2022-08-17T07:48:53.884Z,100053.31
2022-08-17T07:51:32.697Z,100058.22
2022-08-17T07:54:14.439Z,100063.09
2022-08-17T07:56:54.761Z,100068.88
2022-08-17T07:59:33.595Z,100067.19
2022-08-17T08:02:14.516Z,100062.78
2022-08-17T08:05:06.681Z,100064.16
2022-08-17T08:07:51.150Z,100068.09
2022-08-17T08:10:27.091Z,100067.09
2022-08-17T08:13:22.514Z,100062.12
2022-08-17T08:15:56.992Z,100068.00
2022-08-17T08:18:54.368Z,100056.56
2022-08-17T08:21:37.965Z,100065.81
2022-08-17T08:24:30.973Z,100070.75
2022-08-17T08:27:27.328Z,100066.19
2022-08-17T08:30:06.046Z,100062.75
2022-08-17T08:32:59.334Z,100065.22
2022-08-17T08:35:35.699Z,100059.22
2022-08-17T08:38:25.485Z,100064.75
2022-08-17T08:41:24.680Z,100059.75
2022-08-17T08:44:13.436Z,100063.81
2022-08-17T08:47:04.984Z,100052.16
2022-08-17T08:50:03.387Z,100062.34
2022-08-17T08:52:40.540Z,100065.09
2022-08-17T08:55:28.831Z,100066.16
2022-08-17T08:58:07.544Z,100073.16
2022-08-17T09:00:59.449Z,100062.69
2022-08-17T09:04:23.272Z,100069.62
2022-08-17T09:07:26.224Z,100075.03
2022-08-17T09:10:17.618Z,100063.25
2022-08-17T09:12:53.392Z,100075.50
2022-08-17T09:15:25.745Z,100074.47
2022-08-17T09:19:01.700Z,100075.88
2022-08-17T09:20:56.782Z,100077.91
2022-08-17T09:24:12.900Z,100071.91
2022-08-17T09:26:54.928Z,100072.41
2022-08-17T09:29:25.563Z,100067.31
2022-08-17T09:32:03.804Z,100068.84
2022-08-17T09:34:48.529Z,100063.91
2022-08-17T09:37:20.896Z,100068.31
2022-08-17T09:40:02.360Z,100069.06
2022-08-17T09:42:50.254Z,100060.25
2022-08-17T09:45:32.644Z,100060.31
2022-08-17T09:48:45.809Z,100056.25
2022-08-17T09:51:30.381Z,100062.00
2022-08-17T09:54:20.922Z,100052.25
2022-08-17T09:57:28.754Z,100063.25
2022-08-17T10:00:15.064Z,100057.13
2022-08-17T10:02:54.480Z,100057.13
2022-08-17T10:05:24.158Z,100053.09
2022-08-17T10:07:56.311Z,100056.97
2022-08-17T10:10:35.276Z,100055.28
2022-08-17T10:13:41.587Z,100063.41
2022-08-17T10:16:39.048Z,100065.03
2022-08-17T10:19:33.028Z,100064.75
2022-08-17T10:22:37.909Z,100053.28
2022-08-17T10:25:56.487Z,100056.03
2022-08-17T10:28:30.598Z,100062.41
2022-08-17T10:31:33.725Z,100060.13
2022-08-17T10:34:01.140Z,100052.47
2022-08-17T10:36:41.515Z,100048.69
2022-08-17T10:39:31.775Z,100051.31
2022-08-17T10:42:14.309Z,100041.66
2022-08-17T10:45:15.256Z,100040.06
2022-08-17T10:48:21.255Z,100038.00
2022-08-17T10:51:36.494Z,100034.16
2022-08-17T10:54:07.738Z,100037.13
2022-08-17T10:57:01.341Z,100038.31
2022-08-17T10:59:36.256Z,100039.94
2022-08-17T11:02:20.009Z,100038.75
2022-08-17T11:05:19.151Z,100045.22
2022-08-17T11:08:05.596Z,100043.38
2022-08-17T11:10:55.422Z,100041.09
2022-08-17T11:14:04.687Z,100035.41
2022-08-17T11:16:48.108Z,100039.97
2022-08-17T11:19:31.098Z,100038.03
2022-08-17T11:22:23.434Z,100028.25
2022-08-17T11:24:53.955Z,100031.22
2022-08-17T11:27:31.736Z,100021.09
2022-08-17T11:30:07.671Z,100021.62
2022-08-17T11:32:47.356Z,100018.25
2022-08-17T11:35:22.088Z,100005.28
2022-08-17T11:37:56.098Z,100006.78
2022-08-17T11:40:25.253Z,100015.91
2022-08-17T11:43:13.569Z,100014.91
2022-08-17T11:45:53.143Z,100022.28
2022-08-17T11:49:05.939Z,100012.22
2022-08-17T11:52:01.537Z,100023.13
2022-08-17T11:54:48.073Z,100020.28
2022-08-17T11:57:29.534Z,100015.94
2022-08-17T12:00:11.076Z,100022.69
2022-08-17T12:02:48.499Z,100015.75
2022-08-17T12:05:17.018Z,100013.28
2022-08-17T12:07:52.148Z,100006.37
2022-08-17T12:10:31.794Z,100005.09
2022-08-17T12:13:03.775Z,100003.44
2022-08-17T12:15:37.436Z,99999.66
2022-08-17T12:18:05.693Z,100003.78
2022-08-17T12:20:40.060Z,100002.75
2022-08-17T12:23:19.125Z,99999.63
2022-08-17T12:25:56.887Z,99996.28
2022-08-17T12:28:28.989Z,99995.81
2022-08-17T12:31:01.429Z,99995.91
2022-08-17T12:33:30.040Z,100002.34
2022-08-17T12:36:03.228Z,99998.63
2022-08-17T12:38:37.557Z,99993.19
2022-08-17T12:41:25.835Z,99992.53
2022-08-17T12:44:02.365Z,99992.44
2022-08-17T12:46:45.679Z,99991.94
2022-08-17T12:49:26.548Z,99994.69
2022-08-17T12:52:02.879Z,99992.44
2022-08-17T12:54:39.750Z,99991.28
2022-08-17T12:57:26.771Z,99985.06
2022-08-17T13:00:00.922Z,99993.03
2022-08-17T13:02:40.551Z,99982.03
2022-08-17T13:05:18.009Z,99984.91
2022-08-17T13:07:46.692Z,99983.34
2022-08-17T13:10:36.533Z,99980.13
2022-08-17T13:13:23.387Z,99982.69
2022-08-17T13:15:55.472Z,99975.09
2022-08-17T13:18:55.787Z,99973.00
2022-08-17T13:21:23.862Z,99967.53
2022-08-17T13:24:17.291Z,99968.28
2022-08-17T13:26:48.158Z,99968.91
2022-08-17T13:29:26.087Z,99955.75
2022-08-17T13:32:23.102Z,99962.16
2022-08-17T13:35:11.912Z,99961.69
2022-08-17T13:37:57.911Z,99953.31
2022-08-17T13:40:31.235Z,99954.13
2022-08-17T13:42:59.445Z,99953.88
2022-08-17T13:45:34.926Z,99947.47
2022-08-17T13:48:04.519Z,99945.44
2022-08-17T13:50:32.505Z,99952.25
2022-08-17T13:53:00.355Z,99950.72
2022-08-17T13:55:31.330Z,99950.38
2022-08-17T13:58:06.943Z,99952.81
2022-08-17T14:00:36.979Z,99956.91
2022-08-17T14:03:05.753Z,99958.28
2022-08-17T14:05:38.193Z,99952.78
2022-08-17T14:08:07.214Z,99949.97
2022-08-17T14:10:36.571Z,99945.34
2022-08-17T14:13:06.305Z,99937.88
2022-08-17T14:15:53.956Z,99937.84
2022-08-17T14:18:35.538Z,99943.03
2022-08-17T14:21:10.680Z,99940.97
2022-08-17T14:23:39.356Z,99943.69
2022-08-17T14:26:07.140Z,99940.66
2022-08-17T14:28:36.535Z,99940.09
2022-08-17T14:31:06.252Z,99941.84
2022-08-17T14:33:35.170Z,99944.00
2022-08-17T14:36:03.851Z,99939.87
2022-08-17T14:38:31.572Z,99948.53
2022-08-17T14:40:59.328Z,99945.75
2022-08-17T14:43:27.480Z,99941.41
2022-08-17T14:45:55.209Z,99941.84
2022-08-17T14:48:23.108Z,99939.72
2022-08-17T14:50:51.077Z,99935.34
2022-08-17T14:53:20.379Z,99937.31
2022-08-17T14:55:50.649Z,99930.06
2022-08-17T14:58:19.561Z,99934.38
2022-08-17T15:00:49.795Z,99923.34
2022-08-17T15:03:18.765Z,99927.88
2022-08-17T15:05:46.906Z,99925.94
2022-08-17T15:08:16.635Z,99922.38
2022-08-17T15:10:44.891Z,99923.66
2022-08-17T15:13:20.468Z,99928.53
2022-08-17T15:15:49.068Z,99924.56
2022-08-17T15:18:17.374Z,99927.22
2022-08-17T15:20:47.484Z,99928.31
2022-08-17T15:23:18.251Z,99927.16
2022-08-17T15:25:48.202Z,99920.25
2022-08-17T15:28:17.763Z,99920.50
2022-08-17T15:30:45.815Z,99915.72
2022-08-17T15:33:17.520Z,99916.94
2022-08-17T15:35:45.665Z,99909.91
2022-08-17T15:38:14.490Z,99911.22
2022-08-17T15:40:48.766Z,99906.25
2022-08-17T15:43:24.777Z,99903.59
2022-08-17T15:46:19.502Z,99901.00
2022-08-17T15:48:50.460Z,99907.97
2022-08-17T15:51:33.354Z,99908.50
2022-08-17T15:54:18.712Z,99911.25
2022-08-17T15:56:50.659Z,99906.47
2022-08-17T15:59:19.468Z,99904.63
2022-08-17T16:03:05.677Z,99913.94
2022-08-17T16:04:35.201Z,99915.91
2022-08-17T16:07:05.931Z,99909.84
2022-08-17T16:09:33.759Z,99910.50
2022-08-17T16:12:21.697Z,99916.75
2022-08-17T16:14:50.847Z,99913.41
2022-08-17T16:17:39.901Z,99912.13
2022-08-17T16:20:07.788Z,99912.53
2022-08-17T16:22:42.421Z,99909.66
2022-08-17T16:25:14.503Z,99912.59
2022-08-17T16:27:43.484Z,99922.28
2022-08-17T16:30:17.075Z,99923.84
2022-08-17T16:32:47.039Z,99933.47
2022-08-17T16:35:18.653Z,99926.28
2022-08-17T16:37:46.912Z,99919.53
2022-08-17T16:40:16.801Z,99930.41
2022-08-17T16:42:48.471Z,99924.16
2022-08-17T16:45:20.256Z,99936.12
2022-08-17T16:47:51.287Z,99934.50
2022-08-17T16:50:23.313Z,99934.53
2022-08-17T16:52:51.152Z,99932.91
2022-08-17T16:55:21.755Z,99939.09
2022-08-17T16:57:50.986Z,99932.78
2022-08-17T17:00:21.034Z,99926.09
2022-08-17T17:02:49.730Z,99928.97
2022-08-17T17:05:22.383Z,99928.88
2022-08-17T17:08:01.222Z,99929.72
2022-08-17T17:10:39.379Z,99932.16
2022-08-17T17:13:25.452Z,99931.81
2022-08-17T17:16:34.757Z,99921.88
2022-08-17T17:19:06.724Z,99926.00
2022-08-17T17:21:57.179Z,99931.81
2022-08-17T17:25:01.450Z,99926.47
2022-08-17T17:27:34.850Z,99940.56
2022-08-17T17:30:15.212Z,99940.47
2022-08-17T17:32:50.803Z,99943.13
2022-08-17T17:35:53.980Z,99939.66
2022-08-17T17:38:29.941Z,99933.34
2022-08-17T17:41:05.698Z,99936.91
2022-08-17T17:43:41.108Z,99945.84
2022-08-17T17:46:35.401Z,99943.50
2022-08-17T17:49:04.637Z,99939.47
2022-08-17T17:52:09.145Z,99932.41
2022-08-17T17:54:39.307Z,99939.56
2022-08-17T17:57:24.784Z,99940.25
2022-08-17T18:00:12.932Z,99949.41
2022-08-17T18:03:04.572Z,99944.09
2022-08-17T18:05:44.454Z,99944.69
2022-08-17T18:08:32.396Z,99953.03
2022-08-17T18:11:14.516Z,99954.47
2022-08-17T18:13:58.081Z,99951.25
2022-08-17T18:16:28.445Z,99951.19
2022-08-17T18:19:00.680Z,99959.56
2022-08-17T18:21:44.520Z,99961.94
2022-08-17T18:24:14.198Z,99967.78
2022-08-17T18:26:59.483Z,99967.56
2022-08-17T18:29:40.029Z,99974.03
2022-08-17T18:32:18.678Z,99965.16
2022-08-17T18:34:49.124Z,99975.50
2022-08-17T18:37:43.237Z,99995.97
2022-08-17T18:40:33.962Z,100001.72
2022-08-17T18:43:44.438Z,100015.16
2022-08-17T18:46:41.849Z,100004.19
2022-08-17T18:49:19.121Z,100006.94
2022-08-17T18:51:47.642Z,100028.97
2022-08-17T18:54:20.284Z,100018.97
2022-08-17T18:56:57.283Z,100032.81
2022-08-17T18:59:45.650Z,100035.91
2022-08-17T19:02:27.419Z,100032.22
2022-08-17T19:05:11.093Z,100028.81
2022-08-17T19:07:45.353Z,100033.13
2022-08-17T19:10:28.856Z,100026.56
2022-08-17T19:13:12.737Z,100021.59
2022-08-17T19:16:11.641Z,100035.41
2022-08-17T19:18:41.719Z,100028.88
2022-08-17T19:21:16.430Z,100023.19
2022-08-17T19:23:55.663Z,100027.84
2022-08-17T19:26:54.075Z,100035.50
2022-08-17T19:29:22.363Z,100038.59
2022-08-17T19:31:50.508Z,100039.75
2022-08-17T19:34:33.114Z,100035.16
2022-08-17T19:37:13.794Z,100043.97
2022-08-17T19:40:04.515Z,100042.84
2022-08-17T19:42:51.170Z,100044.72
2022-08-17T19:45:59.451Z,100045.91
2022-08-17T19:48:46.087Z,100060.06
2022-08-17T19:51:17.933Z,100051.66
2022-08-17T19:54:04.737Z,100054.72
2022-08-17T19:56:42.070Z,100052.41
2022-08-17T19:59:27.073Z,100055.91
2022-08-17T20:02:19.054Z,100054.00
2022-08-17T20:04:50.614Z,100053.59
2022-08-17T20:07:26.339Z,100059.34
2022-08-17T20:10:08.196Z,100058.22
2022-08-17T20:12:39.629Z,100048.62
2022-08-17T20:15:13.037Z,100049.41
2022-08-17T20:17:45.078Z,100056.69
2022-08-17T20:20:32.260Z,100056.28
2022-08-17T20:23:30.241Z,100062.41
2022-08-17T20:26:07.383Z,100067.75
2022-08-17T20:28:39.050Z,100067.78
2022-08-17T20:31:41.416Z,100067.00
2022-08-17T20:34:33.545Z,100073.12
2022-08-17T20:37:14.445Z,100072.38
2022-08-17T20:40:07.707Z,100067.78
2022-08-17T20:42:37.360Z,100072.38
2022-08-17T20:45:26.479Z,100074.63
2022-08-17T20:48:35.036Z,100085.31
2022-08-17T20:50:57.129Z,100081.13
2022-08-17T20:53:47.195Z,100086.84
2022-08-17T20:56:43.895Z,100091.84
2022-08-17T20:59:22.067Z,100096.00
2022-08-17T21:02:18.641Z,100101.34
2022-08-17T21:04:50.262Z,100088.34
2022-08-17T21:07:43.416Z,100096.38
2022-08-17T21:10:35.676Z,100095.97
2022-08-17T21:13:13.408Z,100092.91
2022-08-17T21:15:41.894Z,100097.47
2022-08-17T21:18:28.186Z,100094.78
2022-08-17T21:21:24.467Z,100095.22
2022-08-17T21:24:26.372Z,100095.94
2022-08-17T21:27:10.137Z,100091.34
2022-08-17T21:30:12.410Z,100089.78
2022-08-17T21:32:43.257Z,100091.25
2022-08-17T21:35:10.841Z,100085.13
2022-08-17T21:37:48.262Z,100087.34
2022-08-17T21:40:23.709Z,100089.69
2022-08-17T21:42:55.611Z,100089.66
2022-08-17T21:45:30.637Z,100097.66
2022-08-17T21:48:19.731Z,100088.84
2022-08-17T21:51:06.715Z,100093.81
2022-08-17T21:53:46.550Z,100091.13
2022-08-17T21:56:25.908Z,100081.56
2022-08-17T21:58:59.510Z,100088.03
2022-08-17T22:01:33.658Z,100088.78
2022-08-17T22:04:26.256Z,100088.78
2022-08-17T22:06:56.953Z,100094.47
2022-08-17T22:09:30.067Z,100089.53
2022-08-17T22:12:10.260Z,100099.44
2022-08-17T22:14:52.301Z,100097.19
2022-08-17T22:17:27.259Z,100107.03
2022-08-17T22:20:17.379Z,100103.59
2022-08-17T22:23:13.134Z,100100.19
2022-08-17T22:26:00.183Z,100094.06
2022-08-17T22:28:41.872Z,100091.75
2022-08-17T22:31:16.177Z,100098.25
2022-08-17T22:33:47.318Z,100098.66
2022-08-17T22:36:29.144Z,100097.16
2022-08-17T22:39:00.768Z,100101.75
2022-08-17T22:41:37.935Z,100105.53
2022-08-17T22:44:34.093Z,100107.44
2022-08-17T22:47:11.561Z,100099.38
2022-08-17T22:49:57.662Z,100102.03
2022-08-17T22:53:04.101Z,100101.66
2022-08-17T22:55:52.195Z,100102.34
2022-08-17T22:58:42.749Z,100095.19
2022-08-17T23:01:33.345Z,100096.75
2022-08-17T23:04:08.582Z,100107.66
2022-08-17T23:06:38.700Z,100103.22
2022-08-17T23:09:07.177Z,100103.94
2022-08-17T23:11:50.041Z,100104.00
2022-08-17T23:14:20.509Z,100102.84
2022-08-17T23:16:50.194Z,100108.97
2022-08-17T23:19:21.470Z,100114.28
2022-08-17T23:21:51.074Z,100109.41
2022-08-17T23:24:21.474Z,100107.84
2022-08-17T23:26:49.493Z,100106.09
2022-08-17T23:29:17.301Z,100110.88
2022-08-17T23:31:45.266Z,100113.19
2022-08-17T23:34:15.133Z,100105.56
2022-08-17T23:36:52.370Z,100110.91
2022-08-17T23:39:27.587Z,100111.28
2022-08-17T23:42:03.464Z,100110.12
2022-08-17T23:44:32.777Z,100114.69
2022-08-17T23:47:02.503Z,100117.69
2022-08-17T23:49:31.805Z,100113.47
2022-08-17T23:52:02.240Z,100114.31
2022-08-17T23:54:48.550Z,100113.94
2022-08-17T23:57:19.510Z,100121.16
2022-08-17T23:59:47.370Z,100129.97
